Lower Island Cove, Canada
Current Conditions -  °F | °C
As of 7:17 PM on Wednesday 28 Jan 2015 (Local Time) from CYYT Reporting Station
Moderate Fog Moderate Fog  
Wind Chill:   Ceiling: 100
Heat Index:   Visibility: 0.25mi
Dew Point:   Wind: 5mph
Humidity: 100%   Direction: 60°ENE
Pressure: 29.72"   Gusts: NA
Location:  48°N, 53°W
Report Text: CYYT 282217Z 06004KT 340V060 1/4SM R16/1200V1800FT/N R29/1600V2200FT/N FG VV001 06/06 A2972 RMK FG8 SLP069
Loading
Personal Weather Stations






























Interactive Weather Map New forecast layout! Learn more

10-Day Weather Forecast

Advertisements
Track Severe Weather on mobile